Nearby METAR Reports

 

KSJC - San Jose, California, USA
Distance from station: NE 9mi, 14km
Updated: Mon, 06-Feb-2023 4:53am PST
Clear
Clear
 Wind from calm
Wind: Calm
Temperature: 43°F , 6°C
Dew Point: 37°F , 3°C
Humidity: 81%
Barometer: 30.39 inHg , 1029.1 hPa
Clouds: Clear
Visibility: 10 miles , 16 km
2023/02/06 12:53 KSJC 061253Z AUTO 00000KT 10SM CLR 06/03 A3039 RMK AO2 SLP289 T00560028
KNUQ - Moffett Nas/Mtn, California, USA
Distance from station: N 9mi, 14km
Updated: Mon, 06-Feb-2023 5:35am PST
Clear
Clear
 Wind from W
Wind: W 5 mph , 7 km/h
Temperature: 43°F , 6°C
Wind Chill: 40°F , 4°C
Dew Point: 39°F , 4°C
Humidity: 87%
Barometer: 30.40 inHg , 1029.5 hPa
Clouds: Clear
Visibility: 10 miles , 16 km
2023/02/06 13:35 KNUQ 061335Z AUTO 26004KT 10SM CLR 06/04 A3040 RMK AO2
 
KPAO - Palo Alto, California, USA
Distance from station: NNW 14mi, 23km
Updated: Sun, 05-Feb-2023 8:47pm PST
NOT Current
Few Clouds
Few Clouds
 Wind from W
Wind: W 8 mph , 13 km/h
Temperature: 48°F , 9°C
Wind Chill: 44°F , 7°C
Dew Point: 43°F , 6°C
Humidity: 82%
Barometer: 30.33 inHg , 1027.1 hPa
Clouds: Few Clouds
Visibility: 10 miles , 16 km
Cloud details: Few Clouds 5000 ft
2023/02/06 04:47 KPAO 060447Z 28007KT 10SM FEW050 09/06 A3033 RMK LAST
KRHV - San Jose/Reid, California, USA
Distance from station: ENE 12mi, 19km
Updated: Sun, 05-Feb-2023 9:55pm PST
NOT Current
Mostly cloudy
Mostly cloudy
 Wind from NW
Wind: NW 5 mph , 7 km/h
Temperature: 48°F , 9°C
Wind Chill: 46°F , 8°C
Dew Point: 43°F , 6°C
Humidity: 82%
Barometer: 30.33 inHg , 1027.1 hPa
Clouds: Mostly cloudy
Visibility: 10 miles , 16 km
Cloud details: Mostly cloudy 2000 ft
2023/02/06 05:55 KRHV 060555Z 31004KT 10SM BKN020 09/06 A3033 RMK LAST
 
KOAK - Oakland, California, USA
Distance from station: NNW 31mi, 50km
Updated: Mon, 06-Feb-2023 4:53am PST
Clear
Clear
 Wind from calm
Wind: Calm
Temperature: 41°F , 5°C
Dew Point: 36°F , 2°C
Humidity: 81%
Barometer: 30.40 inHg , 1029.5 hPa
Clouds: Clear
Visibility: 10 miles , 16 km
2023/02/06 12:53 KOAK 061253Z 00000KT 10SM CLR 05/02 A3040 RMK AO2 SLP292 T00500022
KSQL - San Carlos Airpo, California, USA
Distance from station: NW 21mi, 34km
Updated: Mon, 06-Feb-2023 5:35am PST
Clear
Clear
 Wind from calm
Wind: Calm
Temperature: 43°F , 6°C
Dew Point: 39°F , 4°C
Humidity: 87%
Barometer: 30.41 inHg , 1029.8 hPa
Clouds: Clear
Visibility: 10 miles , 16 km
2023/02/06 13:35 KSQL 061335Z AUTO 00000KT 10SM CLR 06/04 A3041 RMK AO2
 
KSFO - San Francisco, California, USA
Distance from station: NW 30mi, 49km
Updated: Mon, 06-Feb-2023 4:56am PST
Clear
Clear
 Wind from SSW
Wind: SSW 3 mph , 6 km/h
Temperature: 43°F , 6°C
Dew Point: 39°F , 4°C
Humidity: 87%
Barometer: 30.39 inHg , 1029.1 hPa
Clouds: Clear
Visibility: 10 miles , 16 km
2023/02/06 12:56 KSFO 061256Z 21003KT 10SM CLR 06/04 A3039 RMK AO2 SLP289 T00610044
KE16 - San Martin, California, USA
Distance from station: ESE 27mi, 43km
Updated: Mon, 06-Feb-2023 5:35am PST
Few Clouds
Few Clouds
 Wind from NW
Wind: NW 6 mph , 9 km/h
Temperature: 43°F , 6°C
Wind Chill: 39°F , 4°C
Dew Point: 41°F , 5°C
Humidity: 93%
Barometer: 30.39 inHg , 1029.1 hPa
Clouds: Few Clouds
Visibility: 10 miles , 16 km
Cloud details: Few Clouds 1700 ft
2023/02/06 13:35 KE16 061335Z AUTO 32005KT 10SM FEW017 06/05 A3039 RMK AO2 PWINO PNO
 
KWVI - Watsonville, California, USA
Distance from station: SSE 27mi, 44km
Updated: Mon, 06-Feb-2023 4:53am PST
Clear
Clear
 Wind from NW
Wind: NW 3 mph , 6 km/h
Temperature: 37°F , 3°C
Dew Point: 37°F , 3°C
Humidity: 100%
Barometer: 30.37 inHg , 1028.4 hPa
Clouds: Clear
Visibility: 10 miles , 16 km
2023/02/06 12:53 KWVI 061253Z AUTO 32003KT 10SM CLR 03/03 A3037 RMK AO2 SLP286 T00280028
KHAF - Half Moon Bay, California, USA
Distance from station: WNW 31mi, 50km
Updated: Mon, 06-Feb-2023 5:35am PST
Clear
Clear
 Wind from NNE
Wind: NNE 9 mph , 15 km/h
Temperature: 45°F , 7°C
Wind Chill: 40°F , 4°C
Dew Point: 39°F , 4°C
Humidity: 81%
Barometer: 30.40 inHg , 1029.5 hPa
Clouds: Clear
Visibility: 9 miles , 14 km
2023/02/06 13:35 KHAF 061335Z AUTO 02008KT 9SM CLR 07/04 A3040 RMK AO2
 
KHWD - Hayward, California, USA
Distance from station: N 28mi, 44km
Updated: Mon, 06-Feb-2023 4:54am PST
Clear
Clear
 Wind from calm
Wind: Calm
Temperature: 37°F , 3°C
Dew Point: 36°F , 2°C
Humidity: 93%
Barometer: 30.38 inHg , 1028.8 hPa
Clouds: Clear
Visibility: 10 miles , 16 km
2023/02/06 12:54 KHWD 061254Z AUTO 00000KT 10SM CLR 03/02 A3038 RMK AO2 SLP297 T00280022
KLVK - Livermore, California, USA
Distance from station: NNE 31mi, 51km
Updated: Mon, 06-Feb-2023 4:53am PST
Clear
Clear
 Wind from E
Wind: E 3 mph , 6 km/h
Temperature: 37°F , 3°C
Dew Point: 36°F , 2°C
Humidity: 93%
Barometer: 30.37 inHg , 1028.4 hPa
Clouds: Clear
Visibility: 10 miles , 16 km
2023/02/06 12:53 KLVK 061253Z AUTO 10003KT 10SM CLR 03/02 A3037 RMK AO2 SLP285 T00280022